createdAt,value
2023-05-19T00:01:31.622Z,11.40
2023-05-19T00:04:02.719Z,11.40
2023-05-19T00:06:32.226Z,11.40
2023-05-19T00:09:03.222Z,11.30
2023-05-19T00:11:31.032Z,11.30
2023-05-19T00:13:59.766Z,11.30
2023-05-19T00:16:28.165Z,11.30
2023-05-19T00:18:57.213Z,11.40
2023-05-19T00:21:24.360Z,11.20
2023-05-19T00:23:51.497Z,11.40
2023-05-19T00:26:18.812Z,11.10
2023-05-19T00:28:45.912Z,11.10
2023-05-19T00:31:13.128Z,11.10
2023-05-19T00:33:40.350Z,11.30
2023-05-19T00:36:07.903Z,11.00
2023-05-19T00:38:36.394Z,11.00
2023-05-19T00:41:04.927Z,10.70
2023-05-19T00:43:34.622Z,11.20
2023-05-19T00:46:02.315Z,11.00
2023-05-19T00:48:29.776Z,11.00
2023-05-19T00:51:02.446Z,10.90
2023-05-19T00:53:31.558Z,10.90
2023-05-19T00:56:00.037Z,10.90
2023-05-19T00:58:30.930Z,10.90
2023-05-19T01:01:07.453Z,10.90
2023-05-19T01:03:35.833Z,10.90
2023-05-19T01:06:07.507Z,11.10
2023-05-19T01:08:38.504Z,10.90
2023-05-19T01:11:07.090Z,10.90
2023-05-19T01:13:36.402Z,10.80
2023-05-19T01:16:18.879Z,10.80
2023-05-19T01:19:17.119Z,10.80
2023-05-19T01:21:56.333Z,10.70
2023-05-19T01:24:30.899Z,10.70
2023-05-19T01:27:29.144Z,10.70
2023-05-19T01:30:37.853Z,10.70
2023-05-19T01:33:08.340Z,10.60
2023-05-19T01:35:37.179Z,10.60
2023-05-19T01:38:05.492Z,10.50
2023-05-19T01:40:36.301Z,10.50
2023-05-19T01:43:04.744Z,10.70
2023-05-19T01:45:33.699Z,10.70
2023-05-19T01:48:03.428Z,10.70
2023-05-19T01:50:32.011Z,10.30
2023-05-19T01:53:02.316Z,10.40
2023-05-19T01:55:29.834Z,10.40
2023-05-19T01:58:18.767Z,10.30
2023-05-19T02:01:04.769Z,10.50
2023-05-19T02:03:57.032Z,10.40
2023-05-19T02:06:41.897Z,10.40
2023-05-19T02:09:32.293Z,10.40
2023-05-19T02:12:09.666Z,10.50
2023-05-19T02:15:02.689Z,10.50
2023-05-19T02:17:33.276Z,10.60
2023-05-19T02:20:00.476Z,10.60
2023-05-19T02:22:27.591Z,10.60
2023-05-19T02:24:56.671Z,10.80
2023-05-19T02:27:24.119Z,10.80
2023-05-19T02:29:51.175Z,10.60
2023-05-19T02:32:18.876Z,10.90
2023-05-19T02:34:46.144Z,10.70
2023-05-19T02:37:14.652Z,10.70
2023-05-19T02:39:42.741Z,10.60
2023-05-19T02:42:09.935Z,10.60
2023-05-19T02:44:37.055Z,10.60
2023-05-19T02:47:04.389Z,10.50
2023-05-19T02:49:35.825Z,10.40
2023-05-19T02:52:07.020Z,10.60
2023-05-19T02:54:35.056Z,10.30
2023-05-19T02:57:02.286Z,10.30
2023-05-19T02:59:29.390Z,10.30
2023-05-19T03:01:59.261Z,10.30
2023-05-19T03:04:26.403Z,10.40
2023-05-19T03:06:54.419Z,10.40
2023-05-19T03:09:21.753Z,10.40
2023-05-19T03:11:48.902Z,10.60
2023-05-19T03:14:15.952Z,10.30
2023-05-19T03:16:43.390Z,10.20
2023-05-19T03:19:10.826Z,10.20
2023-05-19T03:21:38.213Z,10.40
2023-05-19T03:24:05.548Z,10.40
2023-05-19T03:26:32.659Z,10.20
2023-05-19T03:28:59.822Z,10.20
2023-05-19T03:31:26.989Z,10.30
2023-05-19T03:33:54.130Z,10.10
2023-05-19T03:36:22.254Z,10.40
2023-05-19T03:38:49.482Z,10.10
2023-05-19T03:41:17.956Z,10.30
2023-05-19T03:43:45.038Z,10.10
2023-05-19T03:46:12.174Z,10.30
2023-05-19T03:48:39.496Z,10.10
2023-05-19T03:51:06.616Z,10.40
2023-05-19T03:53:33.794Z,10.20
2023-05-19T03:56:02.943Z,10.50
2023-05-19T03:58:30.181Z,10.30
2023-05-19T04:00:57.265Z,10.40
2023-05-19T04:03:26.206Z,10.40
2023-05-19T04:05:53.353Z,10.50
2023-05-19T04:08:20.450Z,11.00
2023-05-19T04:10:47.530Z,10.70
2023-05-19T04:13:14.638Z,11.00
2023-05-19T04:15:41.756Z,11.00
2023-05-19T04:18:09.060Z,10.80
2023-05-19T04:20:36.122Z,11.20
2023-05-19T04:23:03.281Z,11.20
2023-05-19T04:25:30.518Z,11.40
2023-05-19T04:27:58.019Z,11.60
2023-05-19T04:30:25.395Z,11.80
2023-05-19T04:32:52.430Z,11.90
2023-05-19T04:35:19.599Z,12.40
2023-05-19T04:37:46.880Z,12.30
2023-05-19T04:40:14.005Z,12.10
2023-05-19T04:42:46.183Z,12.60
2023-05-19T04:45:14.261Z,12.70
2023-05-19T04:47:42.091Z,12.70
2023-05-19T04:50:11.196Z,12.70
2023-05-19T04:52:38.248Z,12.70
2023-05-19T04:55:05.592Z,12.70
2023-05-19T04:57:32.645Z,12.60
2023-05-19T05:00:02.563Z,12.60
2023-05-19T05:02:29.573Z,12.60
2023-05-19T05:04:57.093Z,12.60
2023-05-19T05:07:24.214Z,12.60
2023-05-19T05:09:51.598Z,12.50
2023-05-19T05:12:19.747Z,12.50
2023-05-19T05:14:47.149Z,12.50
2023-05-19T05:17:14.531Z,12.50
2023-05-19T05:19:41.851Z,12.50
2023-05-19T05:22:09.106Z,12.50
2023-05-19T05:24:36.356Z,12.40
2023-05-19T05:27:03.976Z,12.50
2023-05-19T05:29:30.957Z,12.60
2023-05-19T05:31:57.921Z,13.00
2023-05-19T05:34:25.065Z,12.60
2023-05-19T05:36:52.048Z,12.70
2023-05-19T05:39:18.997Z,12.90
2023-05-19T05:41:45.944Z,13.20
2023-05-19T05:44:12.891Z,12.90
2023-05-19T05:46:40.095Z,13.00
2023-05-19T05:49:07.536Z,13.10
2023-05-19T05:51:34.952Z,13.30
2023-05-19T05:54:02.741Z,13.40
2023-05-19T05:56:29.992Z,13.60
2023-05-19T05:58:56.944Z,13.60
2023-05-19T06:01:24.106Z,14.20
2023-05-19T06:03:51.487Z,13.70
2023-05-19T06:06:18.711Z,13.80
2023-05-19T06:08:45.735Z,14.00
2023-05-19T06:11:12.779Z,14.20
2023-05-19T06:13:41.419Z,14.40
2023-05-19T06:16:09.135Z,14.60
2023-05-19T06:18:36.089Z,14.80
2023-05-19T06:21:03.425Z,15.00
2023-05-19T06:23:31.246Z,15.30
2023-05-19T06:25:58.186Z,15.80
2023-05-19T06:28:25.127Z,15.80
2023-05-19T06:30:52.084Z,16.20
2023-05-19T06:33:19.069Z,16.60
2023-05-19T06:35:46.083Z,17.00
2023-05-19T06:38:13.121Z,17.40
2023-05-19T06:40:40.639Z,17.80
2023-05-19T06:43:07.547Z,18.10
2023-05-19T06:45:34.682Z,18.40
2023-05-19T06:48:01.866Z,18.80
2023-05-19T06:50:28.920Z,19.20
2023-05-19T06:52:57.260Z,20.50
2023-05-19T06:55:24.356Z,22.20
2023-05-19T06:57:51.274Z,23.40
2023-05-19T07:00:20.643Z,24.10
2023-05-19T07:02:50.176Z,25.30
2023-05-19T07:05:22.108Z,27.10
2023-05-19T07:07:51.790Z,28.50
2023-05-19T07:10:18.866Z,29.10
2023-05-19T07:12:45.859Z,29.00
2023-05-19T07:15:12.885Z,29.00
2023-05-19T07:17:39.862Z,29.20
2023-05-19T07:20:10.410Z,30.00
2023-05-19T07:22:38.661Z,31.30
2023-05-19T07:25:07.363Z,32.40
2023-05-19T07:27:34.421Z,33.60
2023-05-19T07:30:01.427Z,33.90
2023-05-19T07:32:28.335Z,34.20
2023-05-19T07:34:55.475Z,34.60
2023-05-19T07:37:22.514Z,35.30
2023-05-19T07:39:49.466Z,35.70
2023-05-19T07:42:16.550Z,36.50
2023-05-19T07:44:48.144Z,37.20
2023-05-19T07:47:15.135Z,37.70
2023-05-19T07:49:42.125Z,37.70
2023-05-19T07:52:09.195Z,37.90
2023-05-19T07:54:36.260Z,38.60
2023-05-19T07:57:03.360Z,39.10
2023-05-19T07:59:30.362Z,39.20
2023-05-19T08:01:57.552Z,39.30
2023-05-19T08:04:24.857Z,39.50
2023-05-19T08:06:53.033Z,39.50
2023-05-19T08:09:20.205Z,38.80
2023-05-19T08:11:47.195Z,37.80
2023-05-19T08:14:14.184Z,37.20
2023-05-19T08:16:43.020Z,35.70
2023-05-19T08:19:10.138Z,33.70
2023-05-19T08:21:37.150Z,31.60
2023-05-19T08:24:04.660Z,29.90
2023-05-19T08:26:31.749Z,28.30
2023-05-19T08:28:58.882Z,27.10
2023-05-19T08:31:26.273Z,26.20
2023-05-19T08:33:53.356Z,25.50
2023-05-19T08:36:22.719Z,24.80
2023-05-19T08:38:49.677Z,24.30
2023-05-19T08:41:16.824Z,23.80
2023-05-19T08:43:45.264Z,23.30
2023-05-19T08:46:15.183Z,23.10
2023-05-19T08:48:44.317Z,22.90
2023-05-19T08:51:14.047Z,22.60
2023-05-19T08:53:45.942Z,22.30
2023-05-19T08:56:16.389Z,21.80
2023-05-19T08:58:44.767Z,21.50
2023-05-19T09:01:17.770Z,21.20
2023-05-19T09:03:46.901Z,20.80
2023-05-19T09:06:13.991Z,20.60
2023-05-19T09:08:42.563Z,20.50
2023-05-19T09:11:10.618Z,20.60
2023-05-19T09:13:37.797Z,20.70
2023-05-19T09:16:05.725Z,20.70
2023-05-19T09:18:32.822Z,20.80
2023-05-19T09:21:02.577Z,20.90
2023-05-19T09:23:33.443Z,20.90
2023-05-19T09:26:08.213Z,21.00
2023-05-19T09:28:36.856Z,21.00
2023-05-19T09:31:11.221Z,20.40
2023-05-19T09:33:41.063Z,20.70
2023-05-19T09:36:11.132Z,20.70
2023-05-19T09:38:41.536Z,20.70
2023-05-19T09:41:09.438Z,20.80
2023-05-19T09:43:36.558Z,20.90
2023-05-19T09:46:08.238Z,20.90
2023-05-19T09:48:36.451Z,21.00
2023-05-19T09:51:06.487Z,21.00
2023-05-19T09:53:34.634Z,20.90
2023-05-19T09:56:02.465Z,21.00
2023-05-19T09:58:36.845Z,21.00
2023-05-19T10:01:04.894Z,21.10
2023-05-19T10:03:35.135Z,21.30
2023-05-19T10:06:04.437Z,21.20
2023-05-19T10:08:33.150Z,21.20
2023-05-19T10:11:03.974Z,21.20
2023-05-19T10:13:32.400Z,21.30
2023-05-19T10:16:00.626Z,21.40
2023-05-19T10:18:29.807Z,21.40
2023-05-19T10:20:59.155Z,21.30
2023-05-19T10:23:26.643Z,21.20
2023-05-19T10:25:59.082Z,21.20
2023-05-19T10:28:35.107Z,21.30
2023-05-19T10:31:04.966Z,21.40
2023-05-19T10:33:58.293Z,21.30
2023-05-19T10:36:45.874Z,21.30
2023-05-19T10:39:25.298Z,21.30
2023-05-19T10:42:04.153Z,21.10
2023-05-19T10:44:52.447Z,21.20
2023-05-19T10:47:29.844Z,21.30
2023-05-19T10:50:00.288Z,21.30
2023-05-19T10:52:29.841Z,21.30
2023-05-19T10:54:58.424Z,21.20
2023-05-19T10:57:32.345Z,21.20
2023-05-19T11:00:07.147Z,21.20
2023-05-19T11:02:44.321Z,21.10
2023-05-19T11:05:14.488Z,21.30
2023-05-19T11:07:43.570Z,21.30
2023-05-19T11:10:11.719Z,21.40
2023-05-19T11:12:45.875Z,21.50
2023-05-19T11:15:14.929Z,21.40
2023-05-19T11:17:45.267Z,21.30
2023-05-19T11:20:34.931Z,21.30
2023-05-19T11:23:08.735Z,21.20
2023-05-19T11:26:26.690Z,21.10
2023-05-19T11:28:54.308Z,21.20
2023-05-19T11:31:23.019Z,21.20
2023-05-19T11:33:50.593Z,21.30
2023-05-19T11:36:18.831Z,21.30
2023-05-19T11:38:46.864Z,21.50
2023-05-19T11:41:17.253Z,21.70
2023-05-19T11:43:47.926Z,21.90
2023-05-19T11:46:14.959Z,22.00
2023-05-19T11:48:42.019Z,22.10
2023-05-19T11:51:09.016Z,22.20
2023-05-19T11:53:36.349Z,22.30
2023-05-19T11:56:04.526Z,22.30
2023-05-19T11:58:31.775Z,22.30
2023-05-19T12:01:04.259Z,22.30
2023-05-19T12:03:33.181Z,22.50
2023-05-19T12:06:00.518Z,22.60
2023-05-19T12:08:29.358Z,22.50
2023-05-19T12:10:57.075Z,22.50
2023-05-19T12:13:24.204Z,22.60
2023-05-19T12:15:52.477Z,22.70
2023-05-19T12:18:19.684Z,22.70
2023-05-19T12:20:47.062Z,22.70
2023-05-19T12:23:14.435Z,22.70
2023-05-19T12:25:41.775Z,22.70
2023-05-19T12:28:08.760Z,22.90
2023-05-19T12:30:36.142Z,23.00
2023-05-19T12:33:03.657Z,23.10
2023-05-19T12:35:36.282Z,23.20
2023-05-19T12:38:07.481Z,23.10
2023-05-19T12:40:36.471Z,23.00
2023-05-19T12:43:04.264Z,23.00
2023-05-19T12:45:38.873Z,22.30
2023-05-19T12:48:11.943Z,22.40
2023-05-19T12:50:39.102Z,23.00
2023-05-19T12:53:09.475Z,23.10
2023-05-19T12:55:44.631Z,23.20
2023-05-19T12:58:13.579Z,23.50
2023-05-19T13:00:43.657Z,23.80
2023-05-19T13:03:19.055Z,23.50
2023-05-19T13:05:48.798Z,24.10
2023-05-19T13:08:18.350Z,23.80
2023-05-19T13:10:46.652Z,23.70
2023-05-19T13:13:14.001Z,23.20
2023-05-19T13:15:43.249Z,23.30
2023-05-19T13:18:12.623Z,22.90
2023-05-19T13:20:41.841Z,22.70
2023-05-19T13:23:11.045Z,22.70
2023-05-19T13:25:41.064Z,22.60
2023-05-19T13:28:11.174Z,22.40
2023-05-19T13:30:40.120Z,22.40
2023-05-19T13:33:07.509Z,22.50
2023-05-19T13:35:37.558Z,22.70
2023-05-19T13:38:12.012Z,22.70
2023-05-19T13:40:39.883Z,22.70
2023-05-19T13:43:07.706Z,22.60
2023-05-19T13:45:34.639Z,22.60
2023-05-19T13:48:01.795Z,22.60
2023-05-19T13:50:28.889Z,22.70
2023-05-19T13:52:56.000Z,22.70
2023-05-19T13:55:23.680Z,22.60
2023-05-19T13:58:02.668Z,22.40
2023-05-19T14:00:33.340Z,22.20
2023-05-19T14:03:03.620Z,22.10
2023-05-19T14:05:33.600Z,22.00
2023-05-19T14:08:01.197Z,22.00
2023-05-19T14:10:31.015Z,21.90
2023-05-19T14:15:30.098Z,21.90
2023-05-19T14:18:03.656Z,21.80
2023-05-19T14:20:35.228Z,21.70
2023-05-19T14:23:05.977Z,21.80
2023-05-19T14:25:35.682Z,21.90
2023-05-19T14:28:02.725Z,22.00
2023-05-19T14:30:30.136Z,22.10
2023-05-19T14:32:57.161Z,22.20
2023-05-19T14:35:24.459Z,22.20
2023-05-19T14:37:54.341Z,22.10
2023-05-19T14:40:24.880Z,22.10
2023-05-19T14:42:52.138Z,21.90
2023-05-19T14:45:21.923Z,22.00
2023-05-19T14:47:51.375Z,22.00
2023-05-19T14:50:18.429Z,22.10
2023-05-19T14:52:46.869Z,22.00
2023-05-19T14:55:13.878Z,22.10
2023-05-19T14:57:44.284Z,22.20
2023-05-19T15:00:12.247Z,22.30
2023-05-19T15:02:39.464Z,22.60
2023-05-19T15:05:54.962Z,22.60
2023-05-19T15:08:21.907Z,22.50
2023-05-19T15:10:49.888Z,22.30
2023-05-19T15:13:18.943Z,22.30
2023-05-19T15:15:46.135Z,22.30
2023-05-19T15:18:18.939Z,22.30
2023-05-19T15:20:48.998Z,22.50
2023-05-19T15:23:15.952Z,22.60
2023-05-19T15:25:45.990Z,22.70
2023-05-19T15:28:16.872Z,22.60
2023-05-19T15:30:45.185Z,22.40
2023-05-19T15:33:12.570Z,22.40
2023-05-19T15:35:39.646Z,22.30
2023-05-19T15:38:06.648Z,22.40
2023-05-19T15:40:34.114Z,22.20
2023-05-19T15:43:01.329Z,22.10
2023-05-19T15:45:28.361Z,22.00
2023-05-19T15:47:55.983Z,22.00
2023-05-19T15:50:23.222Z,22.00
2023-05-19T15:52:50.305Z,21.90
2023-05-19T15:55:17.389Z,21.80
2023-05-19T15:57:44.309Z,21.80
2023-05-19T16:00:12.067Z,21.80
2023-05-19T16:02:39.192Z,21.90
2023-05-19T16:05:06.460Z,22.10
2023-05-19T16:07:33.351Z,22.10
2023-05-19T16:10:00.288Z,22.00
2023-05-19T16:12:27.848Z,21.90
2023-05-19T16:14:54.862Z,21.80
2023-05-19T16:17:21.736Z,21.80
2023-05-19T16:19:48.749Z,21.60
2023-05-19T16:22:16.897Z,21.50
2023-05-19T16:24:44.127Z,21.50
2023-05-19T16:27:11.055Z,21.40
2023-05-19T16:29:39.227Z,21.40
2023-05-19T16:32:06.471Z,21.40
2023-05-19T16:34:33.557Z,21.40
2023-05-19T16:37:00.969Z,21.40
2023-05-19T16:39:27.905Z,21.40
2023-05-19T16:41:54.857Z,21.40
2023-05-19T16:44:22.016Z,21.40
2023-05-19T16:50:03.056Z,21.20
2023-05-19T16:52:32.252Z,21.20
2023-05-19T16:54:59.313Z,21.10
2023-05-19T16:57:26.429Z,21.10
2023-05-19T16:59:53.389Z,21.00
2023-05-19T17:02:20.673Z,21.00
2023-05-19T17:04:47.739Z,20.50
2023-05-19T17:07:17.849Z,21.00
2023-05-19T17:09:44.908Z,20.80
2023-05-19T17:12:11.772Z,20.80
2023-05-19T17:14:38.875Z,20.80
2023-05-19T17:17:05.956Z,20.70
2023-05-19T17:19:33.082Z,20.70
2023-05-19T17:22:00.049Z,20.70
2023-05-19T17:24:28.829Z,20.70
2023-05-19T17:26:55.810Z,20.70
2023-05-19T17:29:22.880Z,20.70
2023-05-19T17:31:49.809Z,20.70
2023-05-19T17:34:16.679Z,20.70
2023-05-19T17:36:43.584Z,20.50
2023-05-19T17:39:10.628Z,20.50
2023-05-19T17:41:37.595Z,20.50
2023-05-19T17:44:06.631Z,20.40
2023-05-19T17:46:34.730Z,20.40
2023-05-19T17:49:02.154Z,20.40
2023-05-19T17:51:29.556Z,20.30
2023-05-19T17:53:56.809Z,20.20
2023-05-19T17:56:25.004Z,20.10
2023-05-19T17:58:52.306Z,20.00
2023-05-19T18:01:23.692Z,19.80
2023-05-19T18:03:50.947Z,19.70
2023-05-19T18:06:19.187Z,19.60
2023-05-19T18:08:51.611Z,19.50
2023-05-19T18:11:18.864Z,19.50
2023-05-19T18:13:46.051Z,19.50
2023-05-19T18:16:13.101Z,19.40
2023-05-19T18:18:43.538Z,19.30
2023-05-19T18:21:17.636Z,19.20
2023-05-19T18:23:45.721Z,19.00
2023-05-19T18:26:13.126Z,19.00
2023-05-19T18:28:41.297Z,18.80
2023-05-19T18:31:17.447Z,18.70
2023-05-19T18:33:45.285Z,18.70
2023-05-19T18:36:13.396Z,18.60
2023-05-19T18:38:41.192Z,18.50
2023-05-19T18:41:09.222Z,18.40
2023-05-19T18:43:36.188Z,18.40
2023-05-19T18:46:03.230Z,18.40
2023-05-19T18:48:31.261Z,18.30
2023-05-19T18:50:58.121Z,18.20
2023-05-19T18:53:25.200Z,18.30
2023-05-19T18:55:52.339Z,18.30
2023-05-19T18:58:19.486Z,18.20
2023-05-19T19:00:46.866Z,18.10
2023-05-19T19:03:13.858Z,18.00
2023-05-19T19:05:40.898Z,18.00
2023-05-19T19:08:07.926Z,17.80
2023-05-19T19:10:38.974Z,17.70
2023-05-19T19:13:06.326Z,17.70
2023-05-19T19:15:33.380Z,17.60
2023-05-19T19:18:00.479Z,17.60
2023-05-19T19:20:27.556Z,17.50
2023-05-19T19:22:54.641Z,17.40
2023-05-19T19:25:23.502Z,17.30
2023-05-19T19:27:51.179Z,17.30
2023-05-19T19:30:18.134Z,17.30
2023-05-19T19:32:45.076Z,17.20
2023-05-19T19:35:12.295Z,17.10
2023-05-19T19:37:39.369Z,17.00
2023-05-19T19:40:06.903Z,17.00
2023-05-19T19:42:34.217Z,17.00
2023-05-19T19:45:01.266Z,16.90
2023-05-19T19:47:28.344Z,16.90
2023-05-19T19:49:55.970Z,16.90
2023-05-19T19:52:22.961Z,16.80
2023-05-19T19:54:49.855Z,16.80
2023-05-19T19:57:17.370Z,16.70
2023-05-19T19:59:44.453Z,16.70
2023-05-19T20:02:11.631Z,16.60
2023-05-19T20:04:38.881Z,16.50
2023-05-19T20:07:05.951Z,16.50
2023-05-19T20:09:32.895Z,16.40
2023-05-19T20:11:59.926Z,16.40
2023-05-19T20:14:26.921Z,16.30
2023-05-19T20:16:53.817Z,16.30
2023-05-19T20:19:21.111Z,16.20
2023-05-19T20:21:48.116Z,16.20
2023-05-19T20:24:15.118Z,16.20
2023-05-19T20:26:41.996Z,16.10
2023-05-19T20:29:08.918Z,16.10
2023-05-19T20:31:36.153Z,16.00
2023-05-19T20:34:03.124Z,16.10
2023-05-19T20:36:30.196Z,16.00
2023-05-19T20:38:57.175Z,16.00
2023-05-19T20:41:24.107Z,16.00
2023-05-19T20:43:51.215Z,16.00
2023-05-19T20:46:18.248Z,15.90
2023-05-19T20:48:45.426Z,15.20
2023-05-19T20:51:12.372Z,15.80
2023-05-19T20:53:39.417Z,15.90
2023-05-19T20:56:07.383Z,15.80
2023-05-19T20:58:34.377Z,15.80
2023-05-19T21:01:01.296Z,15.70
2023-05-19T21:03:28.616Z,15.70
2023-05-19T21:05:55.819Z,16.10
2023-05-19T21:08:23.101Z,15.60
2023-05-19T21:10:50.416Z,15.60
2023-05-19T21:13:20.763Z,15.60
2023-05-19T21:15:47.786Z,15.50
2023-05-19T21:18:14.857Z,15.50
2023-05-19T21:20:41.844Z,15.40
2023-05-19T21:23:08.852Z,15.40
2023-05-19T21:25:35.837Z,15.30
2023-05-19T21:28:03.317Z,15.30
2023-05-19T21:30:30.269Z,15.20
2023-05-19T21:32:57.356Z,15.60
2023-05-19T21:35:24.426Z,15.20
2023-05-19T21:37:51.372Z,15.20
2023-05-19T21:40:18.423Z,15.20
2023-05-19T21:42:45.994Z,15.20
2023-05-19T21:45:13.133Z,15.10
2023-05-19T21:47:40.142Z,15.10
2023-05-19T21:50:07.861Z,15.10
2023-05-19T21:52:36.401Z,15.00
2023-05-19T21:55:03.394Z,14.90
2023-05-19T21:57:30.361Z,14.90
2023-05-19T21:59:57.266Z,15.00
2023-05-19T22:02:24.435Z,14.90
2023-05-19T22:04:51.687Z,14.90
2023-05-19T22:07:18.700Z,14.90
2023-05-19T22:09:46.947Z,14.80
2023-05-19T22:12:15.660Z,14.80
2023-05-19T22:14:42.564Z,14.80
2023-05-19T22:17:09.419Z,14.80
2023-05-19T22:19:36.359Z,14.80
2023-05-19T22:22:13.161Z,14.70
2023-05-19T22:24:40.733Z,14.70
2023-05-19T22:27:08.540Z,14.70
2023-05-19T22:29:38.530Z,14.70
2023-05-19T22:32:12.082Z,14.60
2023-05-19T22:34:39.318Z,14.60
2023-05-19T22:37:06.397Z,14.60
2023-05-19T22:39:33.357Z,14.60
2023-05-19T22:42:00.430Z,14.60
2023-05-19T22:44:27.390Z,15.00
2023-05-19T22:46:54.432Z,14.50
2023-05-19T22:49:25.689Z,14.50
2023-05-19T22:51:52.705Z,14.40
2023-05-19T22:54:19.636Z,14.40
2023-05-19T22:56:48.735Z,14.30
2023-05-19T22:59:17.766Z,14.20
2023-05-19T23:01:46.794Z,14.20
2023-05-19T23:04:14.248Z,14.20
2023-05-19T23:06:41.304Z,14.10
2023-05-19T23:09:08.215Z,14.10
2023-05-19T23:11:35.862Z,14.10
2023-05-19T23:14:02.878Z,14.00
2023-05-19T23:16:29.801Z,14.00
2023-05-19T23:18:56.784Z,13.90
2023-05-19T23:21:23.847Z,13.90
2023-05-19T23:23:50.902Z,13.80
2023-05-19T23:26:17.859Z,13.80
2023-05-19T23:28:44.919Z,13.70
2023-05-19T23:31:11.870Z,13.70
2023-05-19T23:33:38.852Z,13.70
2023-05-19T23:36:10.622Z,13.60
2023-05-19T23:38:37.843Z,13.60
2023-05-19T23:41:05.442Z,13.60
2023-05-19T23:43:32.597Z,13.60
2023-05-19T23:46:00.232Z,13.50
2023-05-19T23:48:28.808Z,13.40
2023-05-19T23:50:56.838Z,13.40
2023-05-19T23:53:23.966Z,13.60
2023-05-19T23:55:51.488Z,13.40
2023-05-19T23:58:18.636Z,13.30
